Time;durP1;ratioP1;P1;durP2;ratioP2;P2;SDS_P1;SDS_P2;PMS_P1;PMS_P2;Temp;Humidity;BMP_temperature;BMP_pressure;BME280_temperature;BME280_humidity;BME280_pressure;Samples;Min_cycle;Max_cycle;Signal;HPM_P1;HPM_P2
2022/06/19 00:01:31;;;;;;;22.27;9.82;;;;;;;20.15;72.55;100995.31;5096577;28;20034;-81
2022/06/19 00:03:56;;;;;;;24.23;10.85;;;;;;;20.09;72.82;100998.75;5095571;28;20479;-81
2022/06/19 00:06:23;;;;;;;16.90;9.75;;;;;;;20.13;73.09;100997.38;5096888;28;20027;-82
2022/06/19 00:08:49;;;;;;;16.88;10.23;;;;;;;20.08;73.17;100991.63;5095971;28;20028;-82
2022/06/19 00:11:18;;;;;;;15.75;9.88;;;;;;;20.05;73.42;101000.16;5078170;28;20020;-82
2022/06/19 00:13:44;;;;;;;23.15;11.65;;;;;;;20.07;73.79;101000.81;5096151;28;20020;-82
2022/06/19 00:16:10;;;;;;;20.77;11.55;;;;;;;20.04;74.07;100991.09;5096307;28;20549;-83
2022/06/19 00:18:38;;;;;;;14.27;9.85;;;;;;;19.97;74.37;100991.97;5078223;28;20020;-82
2022/06/19 00:21:05;;;;;;;24.70;11.15;;;;;;;19.94;74.50;100992.34;5078656;28;20022;-83
2022/06/19 00:23:30;;;;;;;20.55;12.00;;;;;;;19.94;74.83;100989.59;5078388;28;20028;-82
2022/06/19 00:25:56;;;;;;;21.80;12.93;;;;;;;19.94;74.84;100992.34;5096141;28;20031;-82
2022/06/19 00:28:23;;;;;;;21.77;12.15;;;;;;;19.96;74.78;100988.44;5078203;28;20081;-83
2022/06/19 00:30:48;;;;;;;16.25;11.23;;;;;;;19.90;75.09;100985.53;5094866;28;20016;-82
2022/06/19 00:33:13;;;;;;;18.90;11.88;;;;;;;19.90;75.33;100993.72;5095697;28;20035;-83
2022/06/19 00:35:39;;;;;;;21.13;10.68;;;;;;;19.86;75.80;100984.19;5095900;28;20024;-83
2022/06/19 00:38:04;;;;;;;16.80;11.25;;;;;;;19.87;75.86;100984.03;5095865;28;20474;-83
2022/06/19 00:40:31;;;;;;;16.73;11.60;;;;;;;19.88;75.76;100988.44;5095772;28;20054;-82
2022/06/19 00:42:57;;;;;;;19.55;11.15;;;;;;;19.90;75.80;100983.66;5095789;28;20470;-82
2022/06/19 00:45:33;;;;;;;20.00;12.52;;;;;;;19.94;75.71;100986.88;5095896;28;20020;-82
2022/06/19 00:48:15;;;;;;;17.38;10.75;;;;;;;19.92;76.01;100988.94;5077742;28;20058;-83
2022/06/19 00:50:43;;;;;;;16.02;11.07;;;;;;;19.92;75.90;100986.22;5077626;28;20071;-82
2022/06/19 00:53:15;;;;;;;20.35;11.13;;;;;;;19.95;75.78;100996.78;5077826;28;20495;-83
2022/06/19 00:55:44;;;;;;;16.17;11.43;;;;;;;20.00;75.59;100997.09;5095571;28;20146;-82
2022/06/19 00:58:17;;;;;;;16.00;10.73;;;;;;;19.90;75.49;100985.53;5077567;28;20020;-82
2022/06/19 01:00:47;;;;;;;17.77;11.07;;;;;;;19.89;75.69;100983.84;5095147;28;20032;-82
2022/06/19 01:03:20;;;;;;;16.45;12.75;;;;;;;19.89;76.07;100986.56;5078077;28;20043;-83
2022/06/19 01:05:48;;;;;;;24.15;12.65;;;;;;;19.89;76.19;100992.03;5094781;28;20028;-82
2022/06/19 01:08:14;;;;;;;19.38;11.35;;;;;;;19.82;76.51;100980.94;5076444;28;20028;-82
2022/06/19 01:10:44;;;;;;;19.48;12.70;;;;;;;19.80;76.79;100993.06;5095096;28;20456;-81
2022/06/19 01:13:11;;;;;;;16.67;11.18;;;;;;;19.68;76.97;100968.03;5095217;28;20055;-82
2022/06/19 01:15:37;;;;;;;22.63;11.82;;;;;;;19.81;76.80;100989.34;5095217;28;20474;-82
2022/06/19 01:18:06;;;;;;;21.70;11.30;;;;;;;19.86;76.31;100976.00;5095013;28;20032;-83
2022/06/19 01:20:34;;;;;;;18.67;12.45;;;;;;;19.80;76.22;100973.97;5095412;28;20021;-82
2022/06/19 01:23:11;;;;;;;17.88;11.75;;;;;;;19.82;76.28;100972.75;5095399;28;20497;-83
2022/06/19 01:25:39;;;;;;;29.38;10.55;;;;;;;19.84;76.18;100980.78;5094932;28;20520;-82
2022/06/19 01:30:54;;;;;;;13.82;10.98;;;;;;;19.80;76.22;100983.00;5075117;28;20036;-82
2022/06/19 01:33:37;;;;;;;30.45;10.52;;;;;;;19.78;76.28;100974.16;5074880;28;20109;-82
2022/06/19 01:36:05;;;;;;;23.77;10.65;;;;;;;19.84;75.89;100978.91;5067651;28;20066;-84
2022/06/19 01:38:34;;;;;;;15.60;10.80;;;;;;;19.84;75.34;100976.19;5094376;28;20413;-83
2022/06/19 01:41:06;;;;;;;22.10;10.65;;;;;;;19.92;75.03;100986.22;5094492;28;20020;-83
2022/06/19 01:43:33;;;;;;;15.27;10.00;;;;;;;19.87;74.85;100977.72;5093309;28;20107;-82
2022/06/19 01:46:00;;;;;;;22.70;11.05;;;;;;;19.91;74.71;100981.75;5094016;28;20032;-81
2022/06/19 01:48:30;;;;;;;19.25;11.68;;;;;;;19.86;74.67;100981.44;5094909;28;20020;-81
2022/06/19 01:50:57;;;;;;;21.13;11.80;;;;;;;19.87;74.55;100981.28;5094650;28;20111;-83
2022/06/19 01:53:49;;;;;;;21.58;13.18;;;;;;;19.91;75.08;100981.75;5094410;28;20039;-83
2022/06/19 01:56:14;;;;;;;19.95;12.68;;;;;;;19.97;75.24;100983.78;5094357;28;20032;-82
2022/06/19 01:58:44;;;;;;;22.48;14.40;;;;;;;19.96;75.02;100987.56;5094068;28;20459;-82
2022/06/19 02:01:10;;;;;;;22.23;12.85;;;;;;;20.00;74.82;100983.44;5074117;28;20043;-83
2022/06/19 02:03:42;;;;;;;17.75;11.88;;;;;;;19.94;74.79;100989.59;5081287;28;20024;-82
2022/06/19 02:06:10;;;;;;;18.35;12.10;;;;;;;19.92;74.55;100981.59;5094502;28;20060;-82
2022/06/19 02:08:35;;;;;;;24.42;12.93;;;;;;;19.89;74.85;100992.88;5094027;28;20035;-81
2022/06/19 02:11:04;;;;;;;24.50;12.65;;;;;;;19.89;75.10;100990.16;5094042;28;20492;-82
2022/06/19 02:13:32;;;;;;;20.30;11.80;;;;;;;19.82;74.85;100975.50;5093750;28;20042;-82
2022/06/19 02:15:58;;;;;;;27.65;12.57;;;;;;;19.86;74.81;100995.09;5094248;28;20027;-82
2022/06/19 02:18:28;;;;;;;28.58;11.55;;;;;;;19.81;74.74;101001.09;5093598;28;20042;-82
2022/06/19 02:20:54;;;;;;;16.67;11.02;;;;;;;19.83;74.45;101000.91;5075929;28;20461;-82
2022/06/19 02:23:25;;;;;;;16.42;10.75;;;;;;;19.84;74.16;101000.75;5075647;28;20036;-82
2022/06/19 02:25:51;;;;;;;19.40;9.25;;;;;;;19.83;73.59;101003.66;5081562;28;20055;-82
2022/06/19 02:28:18;;;;;;;18.52;8.55;;;;;;;19.89;72.96;101001.06;5076204;28;20485;-82
2022/06/19 02:30:47;;;;;;;22.38;8.73;;;;;;;19.87;72.87;101000.41;5073989;28;20028;-82
2022/06/19 02:33:15;;;;;;;25.35;11.15;;;;;;;19.95;72.85;101007.69;5055986;28;20111;-82
2022/06/19 02:35:41;;;;;;;22.75;10.23;;;;;;;19.93;73.34;101012.50;5074946;28;20094;-81
2022/06/19 02:38:08;;;;;;;22.45;11.15;;;;;;;19.94;73.75;101011.44;5093601;28;20031;-82
2022/06/19 02:40:54;;;;;;;21.15;11.45;;;;;;;19.90;74.24;101012.84;5094667;28;20039;-83
2022/06/19 02:43:28;;;;;;;19.23;10.98;;;;;;;19.88;74.53;101009.41;5093430;28;20097;-81
2022/06/19 02:45:54;;;;;;;14.57;10.32;;;;;;;19.86;74.45;101008.75;5076966;28;20023;-81
2022/06/19 02:48:27;;;;;;;27.20;12.93;;;;;;;19.90;74.61;101008.25;5093739;28;20051;-81
2022/06/19 02:50:54;;;;;;;19.60;10.80;;;;;;;19.93;74.27;101012.50;5075390;28;20048;-82
2022/06/19 02:53:21;;;;;;;24.35;9.82;;;;;;;19.93;74.20;101015.22;5093474;28;20497;-82
2022/06/19 02:55:47;;;;;;;14.68;8.95;;;;;;;19.94;73.78;101011.44;5075226;28;20043;-81
2022/06/19 02:58:13;;;;;;;14.43;8.07;;;;;;;19.81;73.28;100990.19;5093060;28;20032;-82
2022/06/19 03:00:39;;;;;;;10.90;7.05;;;;;;;19.90;72.72;101001.94;5093001;28;20402;-81
2022/06/19 03:03:11;;;;;;;16.38;6.82;;;;;;;19.90;71.75;100996.47;5093394;28;20032;-80
2022/06/19 03:05:36;;;;;;;17.23;6.10;;;;;;;20.00;70.96;101010.75;5093395;28;20100;-81
2022/06/19 03:08:02;;;;;;;6.50;4.93;;;;;;;20.02;70.04;101003.25;5094312;28;20470;-81
2022/06/19 03:10:30;;;;;;;10.60;5.50;;;;;;;20.08;69.19;101008.84;5093816;28;20016;-82
2022/06/19 03:12:57;;;;;;;34.45;6.35;;;;;;;20.16;67.94;101016.16;5093211;28;20036;-81
2022/06/19 03:15:23;;;;;;;10.40;4.70;;;;;;;20.14;67.90;101006.44;5093399;28;20054;-82
2022/06/19 03:17:48;;;;;;;9.55;3.75;;;;;;;20.22;67.08;101015.44;5093249;28;20085;-82
2022/06/19 03:20:20;;;;;;;10.70;4.68;;;;;;;20.23;65.77;101011.69;5092858;28;20108;-81
2022/06/19 03:22:46;;;;;;;;;;;;;;;20.29;64.92;101019.19;5092924;28;20105;-81
2022/06/19 03:25:11;;;;;;;5.68;3.00;;;;;;;20.23;64.31;101010.81;5092623;28;19917;-81
2022/06/19 03:27:38;;;;;;;12.57;4.35;;;;;;;20.26;63.87;101011.38;5092931;28;20062;-81
2022/06/19 03:30:04;;;;;;;8.02;3.83;;;;;;;20.20;64.43;101012.03;5093046;28;20090;-81
2022/06/19 03:32:29;;;;;;;14.77;3.40;;;;;;;20.22;64.31;101007.25;5093096;28;20505;-81
2022/06/19 03:34:56;;;;;;;18.67;3.60;;;;;;;20.26;63.63;101010.50;5093461;28;20028;-81
2022/06/19 03:37:22;;;;;;;9.45;3.38;;;;;;;20.21;63.58;101008.28;5093511;28;20036;-81
2022/06/19 03:39:47;;;;;;;7.30;3.80;;;;;;;20.19;63.76;101010.31;5093541;28;20028;-82
2022/06/19 03:42:14;;;;;;;7.45;3.72;;;;;;;20.16;64.29;101021.59;5093036;28;20078;-81
2022/06/19 03:44:40;;;;;;;14.90;4.38;;;;;;;20.21;64.46;101030.13;5092361;28;20047;-81
2022/06/19 03:47:06;;;;;;;11.23;4.03;;;;;;;20.23;64.34;101017.16;5074437;28;20051;-82
2022/06/19 03:49:31;;;;;;;7.30;3.60;;;;;;;20.29;63.25;101024.66;5092496;28;20111;-82
2022/06/19 03:51:57;;;;;;;11.85;3.70;;;;;;;20.32;63.38;101016.13;5094090;28;20584;-81
2022/06/19 03:54:23;;;;;;;5.80;3.47;;;;;;;20.31;63.04;101010.81;5095026;28;20024;-81
2022/06/19 03:56:49;;;;;;;6.78;3.50;;;;;;;20.40;63.08;101023.41;5101582;28;20028;-81
2022/06/19 03:59:14;;;;;;;10.50;3.60;;;;;;;20.37;62.74;101002.75;5100939;28;20039;-81
2022/06/19 04:01:41;;;;;;;6.55;4.30;;;;;;;20.45;62.59;101015.53;5101779;28;20036;-81
2022/06/19 04:04:08;;;;;;;9.82;3.58;;;;;;;20.51;62.56;101023.03;5097991;28;20079;-81
2022/06/19 04:06:36;;;;;;;22.42;3.92;;;;;;;20.55;62.26;101021.59;5094285;28;20060;-81
2022/06/19 04:09:04;;;;;;;5.13;3.10;;;;;;;20.57;62.37;101017.69;5096992;28;20032;-80
2022/06/19 04:11:30;;;;;;;18.23;4.57;;;;;;;20.60;62.25;101011.00;5079244;28;20119;-81
2022/06/19 04:13:56;;;;;;;27.30;5.07;;;;;;;20.69;61.83;101014.53;5078025;28;20434;-83
2022/06/19 04:16:28;;;;;;;10.98;4.65;;;;;;;20.60;62.03;100998.19;5095829;28;20035;-82
2022/06/19 04:18:55;;;;;;;9.93;4.57;;;;;;;20.70;62.19;101018.97;5095819;28;20107;-81
2022/06/19 04:21:24;;;;;;;10.48;4.47;;;;;;;20.70;62.40;101016.25;5077730;28;20036;-82
2022/06/19 04:23:53;;;;;;;16.98;5.75;;;;;;;20.70;62.68;101024.44;5077693;28;20111;-80
2022/06/19 04:26:19;;;;;;;12.48;4.05;;;;;;;20.66;62.86;101020.38;5077508;28;20120;-81
2022/06/19 04:28:45;;;;;;;4.85;3.85;;;;;;;20.66;63.00;101026.69;5095233;28;20099;-82
2022/06/19 04:31:10;;;;;;;12.45;4.22;;;;;;;20.74;63.10;101023.03;5078180;28;20032;-81
2022/06/19 04:33:39;;;;;;;12.57;3.80;;;;;;;20.78;63.34;101029.84;5096263;28;20023;-81
2022/06/19 04:36:13;;;;;;;16.55;4.10;;;;;;;20.80;62.85;101019.56;5095488;28;20031;-78
2022/06/19 04:38:41;;;;;;;14.40;4.22;;;;;;;20.86;62.32;101014.22;5095238;28;20393;-80
2022/06/19 04:41:22;;;;;;;7.93;3.05;;;;;;;20.96;62.11;101030.41;5095052;28;20541;-79
2022/06/19 04:43:49;;;;;;;11.83;3.83;;;;;;;21.05;61.74;101021.09;5076787;28;20056;-79
2022/06/19 04:46:15;;;;;;;9.73;3.63;;;;;;;21.13;61.20;101026.53;5077190;28;20040;-78
2022/06/19 04:48:40;;;;;;;8.98;3.08;;;;;;;21.20;60.35;101024.78;5094261;28;20460;-76
2022/06/19 04:51:06;;;;;;;12.18;3.35;;;;;;;21.30;59.60;101027.25;5094230;28;20044;-79
2022/06/19 04:53:34;;;;;;;11.55;4.45;;;;;;;21.23;59.46;101016.19;5076747;28;20078;-80
2022/06/19 04:56:00;;;;;;;10.90;4.18;;;;;;;21.38;59.57;101029.91;5076736;28;20031;-84
2022/06/19 04:58:26;;;;;;;14.05;3.38;;;;;;;21.45;60.04;101029.00;5095022;28;20035;-80
2022/06/19 05:00:53;;;;;;;6.00;3.60;;;;;;;21.51;59.15;101036.47;5077012;28;20405;-82
2022/06/19 05:03:20;;;;;;;7.75;4.38;;;;;;;21.61;59.08;101026.09;5077358;28;20032;-82
2022/06/19 05:05:47;;;;;;;6.60;3.30;;;;;;;21.67;59.04;101033.56;5094190;28;20024;-80
2022/06/19 05:08:12;;;;;;;9.93;3.65;;;;;;;21.71;59.28;101040.34;5094080;28;20028;-79
2022/06/19 05:10:39;;;;;;;4.97;3.65;;;;;;;21.75;58.86;101042.72;5075242;28;20023;-79
2022/06/19 05:13:06;;;;;;;11.25;3.70;;;;;;;21.75;58.50;101043.56;5093906;28;20047;-81
2022/06/19 05:15:32;;;;;;;8.18;3.38;;;;;;;21.77;58.26;101036.03;5094276;28;20031;-82
2022/06/19 05:17:58;;;;;;;8.98;3.75;;;;;;;21.85;57.95;101043.31;5093375;28;20111;-81
2022/06/19 05:20:23;;;;;;;12.35;4.07;;;;;;;21.86;58.91;101040.41;5073507;28;20070;-80
2022/06/19 05:22:49;;;;;;;3.80;2.88;;;;;;;21.93;57.89;101043.22;5090302;28;20565;-78
2022/06/19 05:25:14;;;;;;;9.40;3.25;;;;;;;22.02;57.71;101044.84;5093829;28;20028;-79
2022/06/19 05:27:43;;;;;;;15.48;3.53;;;;;;;22.04;57.87;101040.03;5075235;28;20032;-79
2022/06/19 05:30:12;;;;;;;12.40;4.22;;;;;;;22.14;57.85;101051.53;5093185;28;20478;-79
2022/06/19 05:32:37;;;;;;;6.22;3.53;;;;;;;22.23;57.86;101047.69;5093360;28;20031;-79
2022/06/19 05:35:03;;;;;;;10.98;3.30;;;;;;;22.23;57.90;101043.03;5093200;28;20024;-78
2022/06/19 05:37:29;;;;;;;8.60;3.70;;;;;;;22.32;57.89;101054.78;5093038;28;20032;-79
2022/06/19 05:39:54;;;;;;;6.50;3.90;;;;;;;22.35;57.47;101046.19;5093330;28;20149;-81
2022/06/19 05:42:20;;;;;;;15.13;3.80;;;;;;;22.41;57.99;101050.88;5092944;28;20127;-80
2022/06/19 05:44:45;;;;;;;10.27;3.05;;;;;;;22.55;56.90;101058.22;5093489;28;20016;-81
2022/06/19 05:47:11;;;;;;;11.63;3.28;;;;;;;22.65;57.04;101064.31;5092491;28;20036;-79
2022/06/19 05:49:37;;;;;;;13.20;4.03;;;;;;;22.67;57.21;101056.72;5092492;28;20063;-79
2022/06/19 05:52:12;;;;;;;11.30;5.05;;;;;;;22.81;57.08;101063.22;5093555;28;20538;-80
2022/06/19 05:54:38;;;;;;;7.13;3.10;;;;;;;22.91;56.89;101065.63;5093007;28;20031;-78
2022/06/19 05:57:04;;;;;;;8.98;4.13;;;;;;;22.99;56.44;101063.63;5093545;28;20024;-78
2022/06/19 05:59:29;;;;;;;6.93;3.33;;;;;;;23.05;55.94;101054.63;5093122;28;20432;-78
2022/06/19 06:01:55;;;;;;;7.25;3.33;;;;;;;23.15;54.93;101054.28;5092552;28;20023;-77
2022/06/19 06:04:22;;;;;;;6.50;3.40;;;;;;;23.15;54.93;101062.50;5092772;28;20028;-78
2022/06/19 06:06:48;;;;;;;13.30;3.92;;;;;;;23.19;55.87;101055.59;5092203;28;20081;-76
2022/06/19 06:09:14;;;;;;;14.93;4.60;;;;;;;23.22;55.62;101057.94;5092125;28;20138;-76
2022/06/19 06:11:40;;;;;;;9.48;3.17;;;;;;;23.35;56.28;101059.97;5092593;28;20027;-77
2022/06/19 06:14:05;;;;;;;8.23;3.33;;;;;;;23.41;54.62;101049.06;5092363;28;20031;-77
2022/06/19 06:16:31;;;;;;;10.57;3.10;;;;;;;23.53;54.50;101047.50;5074028;28;20038;-79
2022/06/19 06:18:56;;;;;;;8.43;2.83;;;;;;;23.70;53.47;101053.50;5092596;28;20032;-78
2022/06/19 06:21:23;;;;;;;7.88;2.83;;;;;;;23.79;52.87;101055.09;5092802;28;20493;-77
2022/06/19 06:23:50;;;;;;;10.80;3.03;;;;;;;23.83;52.27;101054.47;5092018;28;20408;-78
2022/06/19 06:26:27;;;;;;;7.18;2.63;;;;;;;23.94;52.15;101057.72;5073739;28;20107;-77
2022/06/19 06:28:55;;;;;;;8.15;3.17;;;;;;;24.01;51.28;101050.34;5091733;28;20031;-77
2022/06/19 06:31:21;;;;;;;9.18;3.33;;;;;;;24.07;51.21;101052.28;5092254;28;20464;-79
2022/06/19 06:33:47;;;;;;;2.70;2.13;;;;;;;24.10;50.76;101051.88;5092580;28;20104;-80
2022/06/19 06:36:13;;;;;;;7.80;2.45;;;;;;;24.19;50.47;101050.69;5092314;28;20039;-77
2022/06/19 06:38:39;;;;;;;5.15;3.03;;;;;;;24.26;51.24;101054.34;5092059;28;20059;-77
2022/06/19 06:41:05;;;;;;;6.40;3.35;;;;;;;;;;5091756;28;20056;-77
2022/06/19 06:43:31;;;;;;;8.98;3.53;;;;;;;24.40;50.66;101056.13;5074222;28;20031;-77
2022/06/19 06:46:09;;;;;;;6.15;2.40;;;;;;;24.53;50.75;101058.06;5091661;28;20032;-78
2022/06/19 06:48:34;;;;;;;6.07;3.35;;;;;;;24.55;48.71;101054.09;5091767;28;20031;-75
2022/06/19 06:51:05;;;;;;;2.58;2.30;;;;;;;24.64;47.45;101052.00;5073767;28;20491;-76
2022/06/19 06:53:30;;;;;;;5.95;3.13;;;;;;;24.68;47.25;101053.25;5090854;28;20028;-75
2022/06/19 06:55:56;;;;;;;7.57;3.00;;;;;;;24.75;48.42;101043.97;5071645;28;20035;-76
2022/06/19 06:58:22;;;;;;;9.15;3.20;;;;;;;24.85;48.50;101047.22;5089349;28;20039;-76
2022/06/19 07:00:47;;;;;;;8.05;2.38;;;;;;;24.94;48.59;101047.03;5079207;28;20115;-76
2022/06/19 07:03:13;;;;;;;7.10;2.60;;;;;;;25.06;48.52;101050.84;5091240;28;20028;-79
2022/06/19 07:05:38;;;;;;;4.90;2.75;;;;;;;25.15;47.20;101055.13;5074352;28;20028;-80
2022/06/19 07:08:05;;;;;;;6.45;3.72;;;;;;;25.13;45.87;101054.47;5091839;28;20027;-79
2022/06/19 07:10:31;;;;;;;3.95;2.85;;;;;;;25.18;44.98;101052.78;5091414;28;20035;-79
2022/06/19 07:12:56;;;;;;;12.65;2.85;;;;;;;25.14;44.99;101047.91;5092379;28;20048;-79
2022/06/19 07:15:22;;;;;;;7.47;2.42;;;;;;;25.16;45.28;101043.06;5090926;28;20454;-78
2022/06/19 07:17:47;;;;;;;10.15;2.80;;;;;;;25.23;45.73;101049.38;5074514;28;20036;-79
2022/06/19 07:20:12;;;;;;;8.38;3.22;;;;;;;25.24;45.08;101042.84;5092179;28;20028;-81
2022/06/19 07:22:38;;;;;;;8.48;3.47;;;;;;;25.30;45.06;101044.75;5092062;28;20055;-80
2022/06/19 07:25:06;;;;;;;13.20;2.78;;;;;;;25.35;44.91;101039.47;5092006;28;20024;-79
2022/06/19 07:27:31;;;;;;;5.13;3.00;;;;;;;25.44;45.12;101039.03;5092044;28;20028;-79
2022/06/19 07:29:57;;;;;;;8.85;2.80;;;;;;;25.53;43.77;101042.47;5092436;28;20058;-79
2022/06/19 07:32:22;;;;;;;6.63;2.35;;;;;;;25.59;43.60;101049.88;5086530;28;20028;-77
2022/06/19 07:34:48;;;;;;;9.05;2.95;;;;;;;25.64;44.15;101050.09;5089287;28;20473;-78
2022/06/19 07:37:14;;;;;;;3.92;2.25;;;;;;;25.60;43.15;101031.44;5085196;28;20478;-76
2022/06/19 07:39:40;;;;;;;3.67;2.20;;;;;;;25.67;43.07;101044.16;5084074;28;20451;-79
2022/06/19 07:42:09;;;;;;;6.47;2.17;;;;;;;25.75;43.08;101046.69;5083780;28;20024;-79
2022/06/19 07:44:35;;;;;;;4.30;2.40;;;;;;;25.78;43.62;101043.50;5082694;28;20066;-79
2022/06/19 07:52:31;;;;;;;11.40;3.38;;;;;;;25.95;42.60;101042.00;5095126;28;20043;-77
2022/06/19 07:54:57;;;;;;;9.07;2.67;;;;;;;25.99;43.09;101046.00;5087482;28;20024;-78
2022/06/19 07:57:22;;;;;;;6.45;2.60;;;;;;;26.04;43.67;101039.84;5074541;28;20036;-80
2022/06/19 07:59:48;;;;;;;14.13;2.75;;;;;;;26.11;42.83;101045.34;5080201;28;20032;-77
2022/06/19 08:02:13;;;;;;;2.97;2.25;;;;;;;26.23;42.86;101043.66;5095457;28;20417;-79
2022/06/19 08:04:38;;;;;;;5.70;3.00;;;;;;;26.33;43.21;101041.28;5095178;28;20043;-75
2022/06/19 08:07:04;;;;;;;8.50;3.40;;;;;;;26.49;42.19;101049.06;5094581;28;20111;-76
2022/06/19 08:09:29;;;;;;;7.63;2.70;;;;;;;26.55;41.96;101045.44;5093257;28;20028;-81
2022/06/19 08:11:55;;;;;;;5.20;2.55;;;;;;;26.64;41.90;101044.13;5096757;28;20028;-82
2022/06/19 08:14:20;;;;;;;2.72;1.83;;;;;;;26.64;40.64;101038.59;5090812;28;20050;-85
2022/06/19 08:16:46;;;;;;;6.97;2.00;;;;;;;26.67;40.37;101049.19;5075854;28;20545;-82
2022/06/19 08:19:11;;;;;;;11.30;2.13;;;;;;;26.69;39.90;101038.81;5084818;28;20496;-77
2022/06/19 08:21:37;;;;;;;4.00;2.10;;;;;;;26.76;40.49;101024.94;5094434;28;20462;-77
2022/06/19 08:24:02;;;;;;;9.15;2.33;;;;;;;26.85;40.79;101026.41;5094324;28;20024;-76
2022/06/19 08:26:28;;;;;;;5.30;2.05;;;;;;;26.96;39.86;101043.16;5094450;28;20035;-75
2022/06/19 08:29:02;;;;;;;7.72;3.10;;;;;;;26.96;39.62;101034.84;5094561;28;20051;-80
2022/06/19 08:31:30;;;;;;;8.38;1.95;;;;;;;26.97;39.26;101024.66;5094011;28;20027;-81
2022/06/19 08:33:56;;;;;;;4.85;2.00;;;;;;;27.01;39.62;101043.31;5086435;28;20035;-80
2022/06/19 08:36:24;;;;;;;3.53;2.03;;;;;;;26.89;39.72;101028.53;5090853;28;20035;-81
2022/06/19 08:38:54;;;;;;;3.05;2.20;;;;;;;26.96;40.22;101029.34;5094809;28;20074;-80
2022/06/19 08:41:44;;;;;;;3.58;2.35;;;;;;;26.92;39.93;101030.84;5091934;28;20098;-80
2022/06/19 08:44:40;;;;;;;3.10;2.00;;;;;;;26.96;39.34;101034.84;5087691;28;20028;-79
2022/06/19 08:47:21;;;;;;;7.57;2.50;;;;;;;26.97;39.56;101036.53;5091345;28;20024;-77
2022/06/19 08:50:05;;;;;;;6.75;2.22;;;;;;;27.06;39.84;101031.63;5059988;28;20051;-77
2022/06/19 08:52:49;;;;;;;19.10;3.72;;;;;;;26.95;39.04;101027.63;5093891;28;20024;-78
2022/06/19 08:55:40;;;;;;;3.75;2.03;;;;;;;27.01;38.95;101021.22;5095188;28;20489;-78
2022/06/19 08:58:21;;;;;;;3.08;1.88;;;;;;;27.10;39.10;101012.66;5076903;28;20024;-79
2022/06/19 09:00:59;;;;;;;6.70;2.08;;;;;;;27.10;39.74;101013.50;5094200;28;20077;-79
2022/06/19 09:07:42;;;;;;;7.05;2.78;;;;;;;27.37;39.74;101016.91;5011764;28;20422;-80
2022/06/19 09:10:23;;;;;;;12.98;2.55;;;;;;;27.46;39.93;101013.66;5092859;28;20102;-80
2022/06/19 09:13:07;;;;;;;5.65;2.60;;;;;;;27.52;39.09;101018.28;5059625;28;20028;-79
2022/06/19 09:15:42;;;;;;;4.90;2.03;;;;;;;27.48;39.56;101006.03;5093880;28;20078;-81
2022/06/19 09:18:29;;;;;;;10.15;2.70;;;;;;;27.47;39.06;101023.66;5094353;28;20035;-84
2022/06/19 09:21:08;;;;;;;8.10;1.83;;;;;;;27.58;38.86;101022.91;5069810;28;20028;-82
2022/06/19 09:23:56;;;;;;;13.95;2.60;;;;;;;27.68;39.13;101013.25;5076235;28;20428;-82
2022/06/19 09:26:31;;;;;;;14.40;2.65;;;;;;;27.68;38.72;101016.03;5085572;28;20490;-83
2022/06/19 09:29:11;;;;;;;9.07;2.30;;;;;;;27.66;38.85;101021.78;5084849;28;20158;-86
2022/06/19 09:31:53;;;;;;;5.28;2.67;;;;;;;27.69;38.38;101013.03;5076764;28;20110;-87
2022/06/19 09:34:24;;;;;;;5.33;3.23;;;;;;;27.83;39.13;101019.28;5095677;28;20031;-84
2022/06/19 09:37:02;;;;;;;3.22;2.38;;;;;;;27.85;41.86;101022.69;5086392;28;20059;-85
2022/06/19 09:39:30;;;;;;;3.30;1.90;;;;;;;27.74;42.87;101018.72;5093773;28;20445;-84
2022/06/19 09:42:05;;;;;;;5.40;2.40;;;;;;;27.66;42.92;101007.97;5093991;28;20028;-85
2022/06/19 09:44:36;;;;;;;4.55;2.17;;;;;;;27.53;43.32;101020.00;5095404;28;20028;-84
2022/06/19 09:47:10;;;;;;;5.70;2.53;;;;;;;27.48;44.75;101016.22;5062094;28;20039;-84
2022/06/19 09:49:44;;;;;;;23.17;3.25;;;;;;;27.39;47.29;101010.09;5074673;28;20056;-85
2022/06/19 09:52:35;;;;;;;12.02;3.60;;;;;;;27.27;49.47;101024.88;5077680;28;20028;-81
2022/06/19 09:55:16;;;;;;;8.80;2.65;;;;;;;27.30;49.71;101024.41;5084566;28;20027;-80
2022/06/19 09:57:52;;;;;;;7.88;2.65;;;;;;;27.19;49.33;101016.84;5090959;28;20093;-81
2022/06/19 10:00:26;;;;;;;11.18;3.38;;;;;;;27.41;48.55;101034.72;5080491;28;20097;-81
2022/06/19 10:03:02;;;;;;;23.52;3.22;;;;;;;27.40;47.08;101033.88;5094671;28;20036;-80
2022/06/19 10:05:35;;;;;;;5.25;2.65;;;;;;;27.31;47.56;101042.66;5091910;28;20110;-81
2022/06/19 10:08:25;;;;;;;3.65;2.40;;;;;;;27.14;48.03;101044.28;5090910;28;20036;-78
2022/06/19 10:10:56;;;;;;;3.25;2.60;;;;;;;27.07;49.69;101040.72;5081427;28;20012;-78
2022/06/19 10:13:32;;;;;;;4.15;2.80;;;;;;;27.01;50.43;101045.22;5086196;28;20028;-79
2022/06/19 10:16:00;;;;;;;12.27;3.05;;;;;;;27.04;50.19;101042.88;5079784;28;20505;-79
2022/06/19 10:18:34;;;;;;;4.53;2.75;;;;;;;27.06;50.50;101034.38;5079985;28;20139;-80
2022/06/19 10:20:59;;;;;;;15.55;3.97;;;;;;;27.05;49.36;101032.66;5088195;28;20078;-78
2022/06/19 10:23:43;;;;;;;5.90;2.75;;;;;;;26.78;49.46;101028.34;5093086;28;20047;-79
2022/06/19 10:26:16;;;;;;;4.10;2.60;;;;;;;26.66;50.34;101036.50;5074667;28;20024;-77
2022/06/19 10:29:01;;;;;;;9.98;3.13;;;;;;;26.80;49.94;101035.38;5079835;28;20028;-78
2022/06/19 10:32:06;;;;;;;4.93;2.50;;;;;;;26.81;49.54;101030.69;5080884;28;20017;-77
2022/06/19 10:35:12;;;;;;;5.75;2.58;;;;;;;26.82;48.94;101033.22;5054649;28;20047;-80
2022/06/19 10:37:43;;;;;;;5.43;2.40;;;;;;;26.90;48.96;101035.75;4971649;28;20453;-78
2022/06/19 10:40:30;;;;;;;9.10;2.75;;;;;;;27.06;48.55;101023.34;5064520;28;20089;-81
2022/06/19 10:42:59;;;;;;;7.85;2.50;;;;;;;27.40;48.17;101024.78;5092837;28;20043;-78
2022/06/19 10:45:41;;;;;;;4.85;2.30;;;;;;;27.41;47.26;101015.41;5093297;28;20056;-79
2022/06/19 10:48:43;;;;;;;10.68;2.65;;;;;;;27.40;47.86;101003.50;5092982;28;20039;-78
2022/06/19 10:51:27;;;;;;;;;;;;;;;27.45;49.02;101022.19;5075240;28;20056;-79
2022/06/19 10:54:16;;;;;;;7.10;2.75;;;;;;;27.40;48.66;101022.00;5092266;28;19912;-78
2022/06/19 10:57:17;;;;;;;8.48;2.28;;;;;;;27.58;48.80;101021.25;5054982;28;20043;-78
2022/06/19 10:59:43;;;;;;;12.70;2.75;;;;;;;27.66;47.91;101016.28;5092103;28;20398;-79
2022/06/19 11:05:14;;;;;;;12.15;3.60;;;;;;;28.01;47.73;101013.78;5092517;28;20082;-77
2022/06/19 11:07:40;;;;;;;6.55;3.00;;;;;;;28.15;46.81;101011.75;5086737;28;20422;-80
2022/06/19 11:10:16;;;;;;;6.78;2.30;;;;;;;27.95;46.72;101018.28;5075886;28;20048;-80
2022/06/19 11:12:45;;;;;;;4.50;2.40;;;;;;;27.93;47.51;101014.94;5073856;28;20409;-80
2022/06/19 11:15:25;;;;;;;6.82;2.95;;;;;;;27.92;47.96;101016.00;5073773;28;20032;-83
2022/06/19 11:18:20;;;;;;;7.47;3.15;;;;;;;27.75;48.88;101017.66;5076854;28;20028;-81
2022/06/19 11:21:11;;;;;;;3.30;2.33;;;;;;;27.72;47.34;101023.66;5076943;28;20071;-78
2022/06/19 11:23:48;;;;;;;5.53;2.30;;;;;;;27.58;48.40;101027.63;5092995;28;20028;-80
2022/06/19 11:26:15;;;;;;;5.68;2.40;;;;;;;27.62;49.10;101026.06;5070724;28;20085;-79
2022/06/19 11:29:05;;;;;;;7.35;2.22;;;;;;;27.69;49.05;101024.09;5090326;28;20131;-78
2022/06/19 11:31:53;;;;;;;25.02;3.05;;;;;;;27.66;49.44;101027.31;5096542;28;20525;-78
2022/06/19 11:37:16;;;;;;;11.10;2.92;;;;;;;27.59;49.46;101018.25;5095322;28;20035;-76
2022/06/19 11:39:45;;;;;;;8.35;2.55;;;;;;;27.66;49.50;101013.50;5095109;28;20035;-76
2022/06/19 11:42:45;;;;;;;7.00;3.05;;;;;;;27.65;50.08;101022.84;5079277;28;20043;-82
2022/06/19 11:45:14;;;;;;;6.25;2.63;;;;;;;27.52;50.29;101020.25;5097458;28;20111;-81
2022/06/19 11:47:43;;;;;;;7.90;2.70;;;;;;;27.37;50.22;101019.66;5097551;28;20059;-79
2022/06/19 11:50:11;;;;;;;5.40;3.10;;;;;;;27.11;50.45;101009.69;5096552;28;20398;-78
2022/06/19 11:52:39;;;;;;;9.80;2.67;;;;;;;27.20;50.87;101013.00;5077364;28;20025;-80